sensor_id;sensor_type;location;lat;lon;timestamp;P1;durP1;ratioP1;P2;durP2;ratioP2
8825;SDS011;4449;50.872;4.714;2022-12-01T00:00:07;26.40;;;13.07;;
8825;SDS011;4449;50.872;4.714;2022-12-01T00:02:35;23.23;;;12.50;;
8825;SDS011;4449;50.872;4.714;2022-12-01T00:05:03;26.90;;;14.50;;
8825;SDS011;4449;50.872;4.714;2022-12-01T00:07:31;22.47;;;12.67;;
8825;SDS011;4449;50.872;4.714;2022-12-01T00:10:00;18.57;;;12.23;;
8825;SDS011;4449;50.872;4.714;2022-12-01T00:12:45;23.27;;;12.93;;
8825;SDS011;4449;50.872;4.714;2022-12-01T00:15:12;22.20;;;12.47;;
8825;SDS011;4449;50.872;4.714;2022-12-01T00:17:40;23.30;;;13.30;;
8825;SDS011;4449;50.872;4.714;2022-12-01T00:20:10;23.77;;;12.50;;
8825;SDS011;4449;50.872;4.714;2022-12-01T00:22:40;25.53;;;13.27;;
8825;SDS011;4449;50.872;4.714;2022-12-01T00:25:10;21.60;;;12.30;;
8825;SDS011;4449;50.872;4.714;2022-12-01T00:27:38;24.90;;;13.20;;
8825;SDS011;4449;50.872;4.714;2022-12-01T00:30:07;19.87;;;12.27;;
8825;SDS011;4449;50.872;4.714;2022-12-01T00:32:35;23.43;;;13.10;;
8825;SDS011;4449;50.872;4.714;2022-12-01T00:35:03;25.90;;;12.20;;
8825;SDS011;4449;50.872;4.714;2022-12-01T00:37:31;22.03;;;13.63;;
8825;SDS011;4449;50.872;4.714;2022-12-01T00:39:59;22.00;;;10.70;;
8825;SDS011;4449;50.872;4.714;2022-12-01T00:42:29;20.23;;;12.10;;
8825;SDS011;4449;50.872;4.714;2022-12-01T00:44:57;20.83;;;11.70;;
8825;SDS011;4449;50.872;4.714;2022-12-01T00:47:25;20.03;;;12.07;;
8825;SDS011;4449;50.872;4.714;2022-12-01T00:49:52;19.47;;;12.43;;
8825;SDS011;4449;50.872;4.714;2022-12-01T00:52:20;21.70;;;12.20;;
8825;SDS011;4449;50.872;4.714;2022-12-01T00:54:48;22.43;;;12.93;;
8825;SDS011;4449;50.872;4.714;2022-12-01T00:57:16;21.87;;;12.53;;
8825;SDS011;4449;50.872;4.714;2022-12-01T00:59:45;19.50;;;11.90;;
8825;SDS011;4449;50.872;4.714;2022-12-01T01:02:12;22.63;;;12.17;;
8825;SDS011;4449;50.872;4.714;2022-12-01T01:04:40;22.97;;;12.77;;
8825;SDS011;4449;50.872;4.714;2022-12-01T01:07:08;22.20;;;13.27;;
8825;SDS011;4449;50.872;4.714;2022-12-01T01:09:36;20.77;;;12.63;;
8825;SDS011;4449;50.872;4.714;2022-12-01T01:12:03;22.17;;;12.07;;
8825;SDS011;4449;50.872;4.714;2022-12-01T01:14:31;21.27;;;11.70;;
8825;SDS011;4449;50.872;4.714;2022-12-01T01:17:00;23.10;;;12.57;;
8825;SDS011;4449;50.872;4.714;2022-12-01T01:19:28;20.33;;;12.40;;
8825;SDS011;4449;50.872;4.714;2022-12-01T01:21:56;21.70;;;13.27;;
8825;SDS011;4449;50.872;4.714;2022-12-01T01:24:23;23.63;;;12.33;;
8825;SDS011;4449;50.872;4.714;2022-12-01T01:26:51;23.67;;;12.37;;
8825;SDS011;4449;50.872;4.714;2022-12-01T01:29:19;23.67;;;13.67;;
8825;SDS011;4449;50.872;4.714;2022-12-01T01:31:47;24.30;;;13.90;;
8825;SDS011;4449;50.872;4.714;2022-12-01T01:34:16;22.93;;;13.07;;
8825;SDS011;4449;50.872;4.714;2022-12-01T01:36:44;23.47;;;13.50;;
8825;SDS011;4449;50.872;4.714;2022-12-01T01:39:12;24.13;;;14.20;;
8825;SDS011;4449;50.872;4.714;2022-12-01T01:41:40;25.20;;;13.83;;
8825;SDS011;4449;50.872;4.714;2022-12-01T01:46:54;22.60;;;12.43;;
8825;SDS011;4449;50.872;4.714;2022-12-01T01:49:23;30.70;;;14.60;;
8825;SDS011;4449;50.872;4.714;2022-12-01T01:51:51;27.27;;;13.57;;
8825;SDS011;4449;50.872;4.714;2022-12-01T01:54:20;21.83;;;12.97;;
8825;SDS011;4449;50.872;4.714;2022-12-01T01:56:48;25.17;;;13.93;;
8825;SDS011;4449;50.872;4.714;2022-12-01T01:59:20;22.13;;;12.73;;
8825;SDS011;4449;50.872;4.714;2022-12-01T02:01:49;23.93;;;13.17;;
8825;SDS011;4449;50.872;4.714;2022-12-01T02:04:19;21.73;;;13.77;;
8825;SDS011;4449;50.872;4.714;2022-12-01T02:06:48;23.67;;;12.73;;
8825;SDS011;4449;50.872;4.714;2022-12-01T02:09:15;21.50;;;12.57;;
8825;SDS011;4449;50.872;4.714;2022-12-01T02:11:50;22.40;;;13.33;;
8825;SDS011;4449;50.872;4.714;2022-12-01T02:14:27;22.13;;;12.50;;
8825;SDS011;4449;50.872;4.714;2022-12-01T02:17:00;25.53;;;13.37;;
8825;SDS011;4449;50.872;4.714;2022-12-01T02:19:43;29.90;;;13.60;;
8825;SDS011;4449;50.872;4.714;2022-12-01T02:22:18;24.27;;;13.47;;
8825;SDS011;4449;50.872;4.714;2022-12-01T02:24:57;27.50;;;14.17;;
8825;SDS011;4449;50.872;4.714;2022-12-01T02:27:35;24.10;;;11.63;;
8825;SDS011;4449;50.872;4.714;2022-12-01T02:30:06;25.37;;;11.97;;
8825;SDS011;4449;50.872;4.714;2022-12-01T02:32:42;26.93;;;13.60;;
8825;SDS011;4449;50.872;4.714;2022-12-01T02:35:13;29.07;;;14.43;;
8825;SDS011;4449;50.872;4.714;2022-12-01T02:37:44;22.33;;;12.87;;
8825;SDS011;4449;50.872;4.714;2022-12-01T02:40:16;22.43;;;12.40;;
8825;SDS011;4449;50.872;4.714;2022-12-01T02:42:46;22.43;;;13.67;;
8825;SDS011;4449;50.872;4.714;2022-12-01T02:45:17;21.37;;;12.23;;
8825;SDS011;4449;50.872;4.714;2022-12-01T02:47:48;24.57;;;12.77;;
8825;SDS011;4449;50.872;4.714;2022-12-01T02:50:18;21.27;;;12.40;;
8825;SDS011;4449;50.872;4.714;2022-12-01T02:52:46;23.87;;;12.93;;
8825;SDS011;4449;50.872;4.714;2022-12-01T02:55:14;29.80;;;13.07;;
8825;SDS011;4449;50.872;4.714;2022-12-01T02:57:42;21.40;;;11.70;;
8825;SDS011;4449;50.872;4.714;2022-12-01T03:00:10;23.33;;;13.77;;
8825;SDS011;4449;50.872;4.714;2022-12-01T03:02:41;21.07;;;12.27;;
8825;SDS011;4449;50.872;4.714;2022-12-01T03:05:17;24.63;;;12.87;;
8825;SDS011;4449;50.872;4.714;2022-12-01T03:07:49;23.30;;;12.43;;
8825;SDS011;4449;50.872;4.714;2022-12-01T03:10:19;25.43;;;13.13;;
8825;SDS011;4449;50.872;4.714;2022-12-01T03:12:54;25.77;;;13.30;;
8825;SDS011;4449;50.872;4.714;2022-12-01T03:15:26;25.07;;;12.90;;
8825;SDS011;4449;50.872;4.714;2022-12-01T03:17:56;28.40;;;13.00;;
8825;SDS011;4449;50.872;4.714;2022-12-01T03:20:29;23.77;;;13.30;;
8825;SDS011;4449;50.872;4.714;2022-12-01T03:23:00;25.53;;;12.80;;
8825;SDS011;4449;50.872;4.714;2022-12-01T03:25:32;28.87;;;13.27;;
8825;SDS011;4449;50.872;4.714;2022-12-01T03:28:00;25.53;;;12.77;;
8825;SDS011;4449;50.872;4.714;2022-12-01T03:30:29;27.93;;;14.00;;
8825;SDS011;4449;50.872;4.714;2022-12-01T03:32:59;28.27;;;13.73;;
8825;SDS011;4449;50.872;4.714;2022-12-01T03:35:32;25.20;;;12.03;;
8825;SDS011;4449;50.872;4.714;2022-12-01T03:38:01;27.17;;;13.80;;
8825;SDS011;4449;50.872;4.714;2022-12-01T03:40:29;25.00;;;12.80;;
8825;SDS011;4449;50.872;4.714;2022-12-01T03:42:57;30.17;;;13.13;;
8825;SDS011;4449;50.872;4.714;2022-12-01T03:45:28;28.57;;;12.43;;
8825;SDS011;4449;50.872;4.714;2022-12-01T03:47:57;30.47;;;14.50;;
8825;SDS011;4449;50.872;4.714;2022-12-01T03:50:25;24.23;;;11.77;;
8825;SDS011;4449;50.872;4.714;2022-12-01T03:52:58;29.97;;;13.87;;
8825;SDS011;4449;50.872;4.714;2022-12-01T03:55:30;24.23;;;12.67;;
8825;SDS011;4449;50.872;4.714;2022-12-01T03:57:59;26.43;;;13.43;;
8825;SDS011;4449;50.872;4.714;2022-12-01T04:00:29;29.93;;;13.77;;
8825;SDS011;4449;50.872;4.714;2022-12-01T04:02:57;32.13;;;13.60;;
8825;SDS011;4449;50.872;4.714;2022-12-01T04:05:26;32.20;;;13.43;;
8825;SDS011;4449;50.872;4.714;2022-12-01T04:07:54;27.90;;;14.77;;
8825;SDS011;4449;50.872;4.714;2022-12-01T04:10:23;31.77;;;13.63;;
8825;SDS011;4449;50.872;4.714;2022-12-01T04:12:50;28.43;;;13.73;;
8825;SDS011;4449;50.872;4.714;2022-12-01T04:15:23;27.77;;;12.30;;
8825;SDS011;4449;50.872;4.714;2022-12-01T04:17:51;27.27;;;13.43;;
8825;SDS011;4449;50.872;4.714;2022-12-01T04:20:19;33.33;;;13.93;;
8825;SDS011;4449;50.872;4.714;2022-12-01T04:22:47;31.57;;;14.30;;
8825;SDS011;4449;50.872;4.714;2022-12-01T04:25:15;29.17;;;13.17;;
8825;SDS011;4449;50.872;4.714;2022-12-01T04:27:44;31.00;;;13.33;;
8825;SDS011;4449;50.872;4.714;2022-12-01T04:30:12;33.40;;;14.77;;
8825;SDS011;4449;50.872;4.714;2022-12-01T04:32:40;33.53;;;14.47;;
8825;SDS011;4449;50.872;4.714;2022-12-01T04:35:09;36.50;;;15.20;;
8825;SDS011;4449;50.872;4.714;2022-12-01T04:37:37;28.13;;;14.10;;
8825;SDS011;4449;50.872;4.714;2022-12-01T04:40:05;37.00;;;14.70;;
8825;SDS011;4449;50.872;4.714;2022-12-01T04:42:33;32.37;;;14.30;;
8825;SDS011;4449;50.872;4.714;2022-12-01T04:45:03;36.13;;;13.80;;
8825;SDS011;4449;50.872;4.714;2022-12-01T04:47:31;35.30;;;14.43;;
8825;SDS011;4449;50.872;4.714;2022-12-01T04:49:58;32.60;;;13.77;;
8825;SDS011;4449;50.872;4.714;2022-12-01T04:52:26;34.43;;;14.13;;
8825;SDS011;4449;50.872;4.714;2022-12-01T04:54:54;32.90;;;14.80;;
8825;SDS011;4449;50.872;4.714;2022-12-01T04:57:21;34.73;;;15.83;;
8825;SDS011;4449;50.872;4.714;2022-12-01T04:59:49;30.10;;;14.00;;
8825;SDS011;4449;50.872;4.714;2022-12-01T05:02:18;33.97;;;13.90;;
8825;SDS011;4449;50.872;4.714;2022-12-01T05:04:46;34.03;;;14.53;;
8825;SDS011;4449;50.872;4.714;2022-12-01T05:07:13;33.27;;;15.10;;
8825;SDS011;4449;50.872;4.714;2022-12-01T05:09:42;29.97;;;14.33;;
8825;SDS011;4449;50.872;4.714;2022-12-01T05:12:10;35.87;;;16.17;;
8825;SDS011;4449;50.872;4.714;2022-12-01T05:14:37;35.40;;;15.27;;
8825;SDS011;4449;50.872;4.714;2022-12-01T05:17:05;37.33;;;14.83;;
8825;SDS011;4449;50.872;4.714;2022-12-01T05:19:34;35.33;;;14.60;;
8825;SDS011;4449;50.872;4.714;2022-12-01T05:22:19;39.17;;;15.57;;
8825;SDS011;4449;50.872;4.714;2022-12-01T05:24:47;36.13;;;15.57;;
8825;SDS011;4449;50.872;4.714;2022-12-01T05:27:14;33.40;;;14.93;;
8825;SDS011;4449;50.872;4.714;2022-12-01T05:29:42;46.17;;;20.15;;
8825;SDS011;4449;50.872;4.714;2022-12-01T05:32:10;33.97;;;16.37;;
8825;SDS011;4449;50.872;4.714;2022-12-01T05:34:39;37.50;;;14.97;;
8825;SDS011;4449;50.872;4.714;2022-12-01T05:37:07;34.37;;;15.30;;
8825;SDS011;4449;50.872;4.714;2022-12-01T05:39:35;32.47;;;15.03;;
8825;SDS011;4449;50.872;4.714;2022-12-01T05:42:04;37.30;;;16.33;;
8825;SDS011;4449;50.872;4.714;2022-12-01T05:44:32;40.07;;;14.83;;
8825;SDS011;4449;50.872;4.714;2022-12-01T05:47:00;44.83;;;16.57;;
8825;SDS011;4449;50.872;4.714;2022-12-01T05:49:28;35.10;;;15.50;;
8825;SDS011;4449;50.872;4.714;2022-12-01T05:51:57;36.43;;;15.10;;
8825;SDS011;4449;50.872;4.714;2022-12-01T05:54:24;41.73;;;16.30;;
8825;SDS011;4449;50.872;4.714;2022-12-01T05:56:52;38.90;;;15.60;;
8825;SDS011;4449;50.872;4.714;2022-12-01T05:59:20;37.27;;;15.10;;
8825;SDS011;4449;50.872;4.714;2022-12-01T06:01:48;34.10;;;14.20;;
8825;SDS011;4449;50.872;4.714;2022-12-01T06:04:15;33.67;;;15.03;;
8825;SDS011;4449;50.872;4.714;2022-12-01T06:06:43;33.27;;;13.70;;
8825;SDS011;4449;50.872;4.714;2022-12-01T06:09:12;37.33;;;16.07;;
8825;SDS011;4449;50.872;4.714;2022-12-01T06:11:40;35.03;;;14.63;;
8825;SDS011;4449;50.872;4.714;2022-12-01T06:14:08;36.40;;;15.70;;
8825;SDS011;4449;50.872;4.714;2022-12-01T06:16:35;33.07;;;15.13;;
8825;SDS011;4449;50.872;4.714;2022-12-01T06:19:03;39.83;;;16.33;;
8825;SDS011;4449;50.872;4.714;2022-12-01T06:21:31;39.00;;;14.70;;
8825;SDS011;4449;50.872;4.714;2022-12-01T06:23:59;35.60;;;14.73;;
8825;SDS011;4449;50.872;4.714;2022-12-01T06:26:28;42.27;;;16.23;;
8825;SDS011;4449;50.872;4.714;2022-12-01T06:28:56;40.77;;;14.27;;
8825;SDS011;4449;50.872;4.714;2022-12-01T06:31:24;33.63;;;14.73;;
8825;SDS011;4449;50.872;4.714;2022-12-01T06:33:52;32.17;;;13.77;;
8825;SDS011;4449;50.872;4.714;2022-12-01T06:36:20;36.40;;;15.60;;
8825;SDS011;4449;50.872;4.714;2022-12-01T06:38:47;33.33;;;15.00;;
8825;SDS011;4449;50.872;4.714;2022-12-01T06:41:15;33.93;;;14.73;;
8825;SDS011;4449;50.872;4.714;2022-12-01T06:43:44;44.50;;;18.33;;
8825;SDS011;4449;50.872;4.714;2022-12-01T06:46:12;33.95;;;14.90;;
8825;SDS011;4449;50.872;4.714;2022-12-01T06:48:39;34.97;;;14.97;;
8825;SDS011;4449;50.872;4.714;2022-12-01T06:51:07;35.10;;;14.53;;
8825;SDS011;4449;50.872;4.714;2022-12-01T06:53:35;31.50;;;14.20;;
8825;SDS011;4449;50.872;4.714;2022-12-01T06:56:03;37.17;;;14.90;;
8825;SDS011;4449;50.872;4.714;2022-12-01T06:58:31;33.87;;;14.80;;
8825;SDS011;4449;50.872;4.714;2022-12-01T07:01:06;36.80;;;14.40;;
8825;SDS011;4449;50.872;4.714;2022-12-01T07:03:34;47.17;;;16.23;;
8825;SDS011;4449;50.872;4.714;2022-12-01T07:06:02;32.83;;;14.23;;
8825;SDS011;4449;50.872;4.714;2022-12-01T07:08:30;44.33;;;15.00;;
8825;SDS011;4449;50.872;4.714;2022-12-01T07:10:58;42.27;;;15.67;;
8825;SDS011;4449;50.872;4.714;2022-12-01T07:13:26;30.60;;;13.90;;
8825;SDS011;4449;50.872;4.714;2022-12-01T07:15:54;39.30;;;14.40;;
8825;SDS011;4449;50.872;4.714;2022-12-01T07:18:23;28.50;;;14.17;;
8825;SDS011;4449;50.872;4.714;2022-12-01T07:20:51;36.93;;;15.27;;
8825;SDS011;4449;50.872;4.714;2022-12-01T07:23:18;28.37;;;15.07;;
8825;SDS011;4449;50.872;4.714;2022-12-01T07:25:46;30.30;;;13.70;;
8825;SDS011;4449;50.872;4.714;2022-12-01T07:28:14;34.37;;;15.07;;
8825;SDS011;4449;50.872;4.714;2022-12-01T07:30:42;33.70;;;15.40;;
8825;SDS011;4449;50.872;4.714;2022-12-01T07:33:10;30.57;;;14.00;;
8825;SDS011;4449;50.872;4.714;2022-12-01T07:35:39;38.53;;;15.73;;
8825;SDS011;4449;50.872;4.714;2022-12-01T07:38:07;25.60;;;14.30;;
8825;SDS011;4449;50.872;4.714;2022-12-01T07:40:34;30.23;;;14.13;;
8825;SDS011;4449;50.872;4.714;2022-12-01T07:43:02;28.03;;;13.50;;
8825;SDS011;4449;50.872;4.714;2022-12-01T07:45:30;35.73;;;15.10;;
8825;SDS011;4449;50.872;4.714;2022-12-01T07:47:58;32.87;;;14.57;;
8825;SDS011;4449;50.872;4.714;2022-12-01T07:50:25;35.63;;;14.83;;
8825;SDS011;4449;50.872;4.714;2022-12-01T07:52:54;39.03;;;19.55;;
8825;SDS011;4449;50.872;4.714;2022-12-01T07:55:22;39.92;;;19.10;;
8825;SDS011;4449;50.872;4.714;2022-12-01T07:57:50;35.45;;;19.85;;
8825;SDS011;4449;50.872;4.714;2022-12-01T08:00:18;32.57;;;16.30;;
8825;SDS011;4449;50.872;4.714;2022-12-01T08:02:46;36.13;;;14.47;;
8825;SDS011;4449;50.872;4.714;2022-12-01T08:05:14;45.00;;;15.53;;
8825;SDS011;4449;50.872;4.714;2022-12-01T08:07:41;33.60;;;14.43;;
8825;SDS011;4449;50.872;4.714;2022-12-01T08:10:11;29.97;;;13.90;;
8825;SDS011;4449;50.872;4.714;2022-12-01T08:12:39;33.60;;;14.40;;
8825;SDS011;4449;50.872;4.714;2022-12-01T08:15:06;29.83;;;13.53;;
8825;SDS011;4449;50.872;4.714;2022-12-01T08:17:34;27.90;;;13.17;;
8825;SDS011;4449;50.872;4.714;2022-12-01T08:20:02;37.35;;;18.35;;
8825;SDS011;4449;50.872;4.714;2022-12-01T08:22:31;27.73;;;14.40;;
8825;SDS011;4449;50.872;4.714;2022-12-01T08:24:58;40.17;;;19.23;;
8825;SDS011;4449;50.872;4.714;2022-12-01T08:27:28;30.95;;;17.42;;
8825;SDS011;4449;50.872;4.714;2022-12-01T08:29:55;31.42;;;16.80;;
8825;SDS011;4449;50.872;4.714;2022-12-01T08:32:23;31.98;;;16.98;;
8825;SDS011;4449;50.872;4.714;2022-12-01T08:34:51;34.78;;;18.17;;
8825;SDS011;4449;50.872;4.714;2022-12-01T08:37:18;32.40;;;18.05;;
8825;SDS011;4449;50.872;4.714;2022-12-01T08:39:46;30.90;;;16.83;;
8825;SDS011;4449;50.872;4.714;2022-12-01T08:42:13;35.35;;;17.90;;
8825;SDS011;4449;50.872;4.714;2022-12-01T08:44:42;29.88;;;17.25;;
8825;SDS011;4449;50.872;4.714;2022-12-01T08:47:10;32.53;;;18.57;;
8825;SDS011;4449;50.872;4.714;2022-12-01T08:49:38;31.38;;;16.83;;
8825;SDS011;4449;50.872;4.714;2022-12-01T08:52:06;30.75;;;17.27;;
8825;SDS011;4449;50.872;4.714;2022-12-01T08:54:33;31.20;;;17.10;;
8825;SDS011;4449;50.872;4.714;2022-12-01T08:57:01;30.45;;;16.52;;
8825;SDS011;4449;50.872;4.714;2022-12-01T08:59:29;29.02;;;16.48;;
8825;SDS011;4449;50.872;4.714;2022-12-01T09:01:57;29.15;;;16.83;;
8825;SDS011;4449;50.872;4.714;2022-12-01T09:04:25;31.40;;;17.25;;
8825;SDS011;4449;50.872;4.714;2022-12-01T09:06:54;30.58;;;17.45;;
8825;SDS011;4449;50.872;4.714;2022-12-01T09:09:22;28.75;;;16.50;;
8825;SDS011;4449;50.872;4.714;2022-12-01T09:11:50;30.20;;;16.47;;
8825;SDS011;4449;50.872;4.714;2022-12-01T09:14:19;32.75;;;16.42;;
8825;SDS011;4449;50.872;4.714;2022-12-01T09:16:47;29.17;;;15.63;;
8825;SDS011;4449;50.872;4.714;2022-12-01T09:19:17;27.92;;;15.45;;
8825;SDS011;4449;50.872;4.714;2022-12-01T09:21:45;28.80;;;16.02;;
8825;SDS011;4449;50.872;4.714;2022-12-01T09:24:13;31.95;;;16.92;;
8825;SDS011;4449;50.872;4.714;2022-12-01T09:26:41;29.83;;;15.77;;
8825;SDS011;4449;50.872;4.714;2022-12-01T09:29:10;29.85;;;16.10;;
8825;SDS011;4449;50.872;4.714;2022-12-01T09:31:39;34.15;;;16.45;;
8825;SDS011;4449;50.872;4.714;2022-12-01T09:34:07;28.15;;;15.60;;
8825;SDS011;4449;50.872;4.714;2022-12-01T09:36:37;27.20;;;15.23;;
8825;SDS011;4449;50.872;4.714;2022-12-01T09:39:05;28.03;;;15.23;;
8825;SDS011;4449;50.872;4.714;2022-12-01T09:41:35;28.63;;;15.45;;
8825;SDS011;4449;50.872;4.714;2022-12-01T10:42:11;28.10;;;14.50;;
8825;SDS011;4449;50.872;4.714;2022-12-01T10:44:40;23.98;;;13.50;;
8825;SDS011;4449;50.872;4.714;2022-12-01T10:47:11;20.75;;;13.07;;
8825;SDS011;4449;50.872;4.714;2022-12-01T10:49:42;21.08;;;13.23;;
8825;SDS011;4449;50.872;4.714;2022-12-01T10:52:28;20.10;;;12.75;;
8825;SDS011;4449;50.872;4.714;2022-12-01T10:54:56;22.20;;;13.00;;
8825;SDS011;4449;50.872;4.714;2022-12-01T10:57:26;21.83;;;12.35;;
8825;SDS011;4449;50.872;4.714;2022-12-01T10:59:55;22.77;;;13.18;;
8825;SDS011;4449;50.872;4.714;2022-12-01T11:02:24;21.17;;;12.80;;
8825;SDS011;4449;50.872;4.714;2022-12-01T11:04:53;20.73;;;12.05;;
8825;SDS011;4449;50.872;4.714;2022-12-01T11:07:22;30.38;;;19.05;;
8825;SDS011;4449;50.872;4.714;2022-12-01T11:09:56;19.80;;;12.52;;
8825;SDS011;4449;50.872;4.714;2022-12-01T11:12:28;21.45;;;12.80;;
8825;SDS011;4449;50.872;4.714;2022-12-01T11:14:56;22.33;;;13.30;;
8825;SDS011;4449;50.872;4.714;2022-12-01T11:17:25;21.10;;;13.75;;
8825;SDS011;4449;50.872;4.714;2022-12-01T11:19:54;19.42;;;12.98;;
8825;SDS011;4449;50.872;4.714;2022-12-01T11:22:23;22.95;;;13.48;;
8825;SDS011;4449;50.872;4.714;2022-12-01T11:25:01;21.95;;;13.85;;
8825;SDS011;4449;50.872;4.714;2022-12-01T11:27:31;23.45;;;14.18;;
8825;SDS011;4449;50.872;4.714;2022-12-01T11:30:00;24.48;;;14.60;;
8825;SDS011;4449;50.872;4.714;2022-12-01T11:32:29;22.02;;;13.95;;
8825;SDS011;4449;50.872;4.714;2022-12-01T11:34:58;23.65;;;14.35;;
8825;SDS011;4449;50.872;4.714;2022-12-01T11:37:28;20.27;;;13.50;;
8825;SDS011;4449;50.872;4.714;2022-12-01T11:40:03;20.83;;;13.55;;
8825;SDS011;4449;50.872;4.714;2022-12-01T11:42:33;21.88;;;12.68;;
8825;SDS011;4449;50.872;4.714;2022-12-01T11:45:04;24.15;;;13.52;;
8825;SDS011;4449;50.872;4.714;2022-12-01T11:47:32;21.17;;;12.53;;
8825;SDS011;4449;50.872;4.714;2022-12-01T11:50:01;17.00;;;11.77;;
8825;SDS011;4449;50.872;4.714;2022-12-01T11:52:30;19.60;;;11.93;;
8825;SDS011;4449;50.872;4.714;2022-12-01T11:55:01;19.45;;;12.52;;
8825;SDS011;4449;50.872;4.714;2022-12-01T11:57:29;18.10;;;12.32;;
8825;SDS011;4449;50.872;4.714;2022-12-01T11:59:59;22.02;;;13.50;;
8825;SDS011;4449;50.872;4.714;2022-12-01T12:02:29;20.13;;;13.70;;
8825;SDS011;4449;50.872;4.714;2022-12-01T12:05:04;19.77;;;12.40;;
8825;SDS011;4449;50.872;4.714;2022-12-01T12:07:34;18.43;;;11.87;;
8825;SDS011;4449;50.872;4.714;2022-12-01T12:12:59;20.00;;;12.80;;
8825;SDS011;4449;50.872;4.714;2022-12-01T12:15:35;23.58;;;12.90;;
8825;SDS011;4449;50.872;4.714;2022-12-01T12:18:14;20.38;;;12.77;;
8825;SDS011;4449;50.872;4.714;2022-12-01T12:20:50;20.67;;;13.05;;
8825;SDS011;4449;50.872;4.714;2022-12-01T12:23:27;19.13;;;12.10;;
8825;SDS011;4449;50.872;4.714;2022-12-01T12:25:59;23.02;;;13.82;;
8825;SDS011;4449;50.872;4.714;2022-12-01T12:28:39;20.83;;;13.15;;
8825;SDS011;4449;50.872;4.714;2022-12-01T12:31:15;24.95;;;12.85;;
8825;SDS011;4449;50.872;4.714;2022-12-01T12:33:58;23.45;;;12.63;;
8825;SDS011;4449;50.872;4.714;2022-12-01T12:36:31;20.48;;;12.35;;
8825;SDS011;4449;50.872;4.714;2022-12-01T12:39:05;20.08;;;12.05;;
8825;SDS011;4449;50.872;4.714;2022-12-01T12:41:37;19.67;;;12.35;;
8825;SDS011;4449;50.872;4.714;2022-12-01T12:44:16;19.25;;;12.63;;
8825;SDS011;4449;50.872;4.714;2022-12-01T12:46:48;19.33;;;12.77;;
8825;SDS011;4449;50.872;4.714;2022-12-01T12:49:27;22.63;;;13.60;;
8825;SDS011;4449;50.872;4.714;2022-12-01T12:51:57;20.42;;;13.00;;
8825;SDS011;4449;50.872;4.714;2022-12-01T12:54:28;21.67;;;13.48;;
8825;SDS011;4449;50.872;4.714;2022-12-01T12:56:59;24.42;;;13.95;;
8825;SDS011;4449;50.872;4.714;2022-12-01T12:59:28;22.95;;;12.75;;
8825;SDS011;4449;50.872;4.714;2022-12-01T13:02:00;23.07;;;13.77;;
8825;SDS011;4449;50.872;4.714;2022-12-01T13:04:33;21.30;;;13.55;;
8825;SDS011;4449;50.872;4.714;2022-12-01T13:07:04;21.13;;;13.05;;
8825;SDS011;4449;50.872;4.714;2022-12-01T13:09:33;22.60;;;13.57;;
8825;SDS011;4449;50.872;4.714;2022-12-01T13:12:03;24.55;;;14.23;;
8825;SDS011;4449;50.872;4.714;2022-12-01T13:14:34;24.95;;;13.75;;
8825;SDS011;4449;50.872;4.714;2022-12-01T13:17:11;21.40;;;13.52;;
8825;SDS011;4449;50.872;4.714;2022-12-01T13:19:41;23.77;;;13.63;;
8825;SDS011;4449;50.872;4.714;2022-12-01T13:22:10;25.88;;;13.20;;
8825;SDS011;4449;50.872;4.714;2022-12-01T13:24:38;23.95;;;14.07;;
8825;SDS011;4449;50.872;4.714;2022-12-01T13:27:12;22.95;;;14.95;;
8825;SDS011;4449;50.872;4.714;2022-12-01T13:29:43;23.95;;;13.77;;
8825;SDS011;4449;50.872;4.714;2022-12-01T13:32:24;21.38;;;13.13;;
8825;SDS011;4449;50.872;4.714;2022-12-01T13:34:52;24.55;;;14.07;;
8825;SDS011;4449;50.872;4.714;2022-12-01T13:37:24;23.23;;;14.50;;
8825;SDS011;4449;50.872;4.714;2022-12-01T13:39:53;23.23;;;14.43;;
8825;SDS011;4449;50.872;4.714;2022-12-01T13:42:21;21.48;;;13.50;;
8825;SDS011;4449;50.872;4.714;2022-12-01T13:44:50;25.80;;;14.52;;
8825;SDS011;4449;50.872;4.714;2022-12-01T13:47:47;23.02;;;14.18;;
8825;SDS011;4449;50.872;4.714;2022-12-01T13:53:09;23.63;;;14.48;;
8825;SDS011;4449;50.872;4.714;2022-12-01T13:55:52;31.45;;;15.20;;
8825;SDS011;4449;50.872;4.714;2022-12-01T13:58:22;24.65;;;15.27;;
8825;SDS011;4449;50.872;4.714;2022-12-01T14:00:50;26.10;;;14.52;;
8825;SDS011;4449;50.872;4.714;2022-12-01T14:03:36;24.52;;;14.63;;
8825;SDS011;4449;50.872;4.714;2022-12-01T14:06:08;24.10;;;13.88;;
8825;SDS011;4449;50.872;4.714;2022-12-01T14:08:36;21.50;;;13.55;;
8825;SDS011;4449;50.872;4.714;2022-12-01T14:11:17;24.63;;;14.40;;
8825;SDS011;4449;50.872;4.714;2022-12-01T14:13:47;24.85;;;14.23;;
8825;SDS011;4449;50.872;4.714;2022-12-01T14:16:16;24.90;;;14.65;;
8825;SDS011;4449;50.872;4.714;2022-12-01T14:18:49;23.83;;;14.38;;
8825;SDS011;4449;50.872;4.714;2022-12-01T14:21:38;24.52;;;14.48;;
8825;SDS011;4449;50.872;4.714;2022-12-01T14:24:06;25.85;;;15.45;;
8825;SDS011;4449;50.872;4.714;2022-12-01T14:26:41;26.67;;;15.18;;
8825;SDS011;4449;50.872;4.714;2022-12-01T14:29:22;22.90;;;14.10;;
8825;SDS011;4449;50.872;4.714;2022-12-01T14:32:04;24.05;;;14.65;;
8825;SDS011;4449;50.872;4.714;2022-12-01T14:34:34;25.10;;;14.30;;
8825;SDS011;4449;50.872;4.714;2022-12-01T14:37:02;26.73;;;14.77;;
8825;SDS011;4449;50.872;4.714;2022-12-01T14:39:32;31.60;;;15.77;;
8825;SDS011;4449;50.872;4.714;2022-12-01T14:42:02;24.48;;;15.30;;
8825;SDS011;4449;50.872;4.714;2022-12-01T14:44:32;29.43;;;15.53;;
8825;SDS011;4449;50.872;4.714;2022-12-01T14:47:00;24.80;;;15.15;;
8825;SDS011;4449;50.872;4.714;2022-12-01T14:49:32;27.95;;;15.60;;
8825;SDS011;4449;50.872;4.714;2022-12-01T14:52:03;24.88;;;16.05;;
8825;SDS011;4449;50.872;4.714;2022-12-01T14:54:32;27.77;;;15.70;;
8825;SDS011;4449;50.872;4.714;2022-12-01T14:57:01;27.25;;;15.73;;
8825;SDS011;4449;50.872;4.714;2022-12-01T14:59:30;28.38;;;15.15;;
8825;SDS011;4449;50.872;4.714;2022-12-01T15:02:03;28.50;;;16.27;;
8825;SDS011;4449;50.872;4.714;2022-12-01T15:04:33;24.10;;;14.80;;
8825;SDS011;4449;50.872;4.714;2022-12-01T15:07:03;26.02;;;15.77;;
8825;SDS011;4449;50.872;4.714;2022-12-01T15:09:31;24.65;;;14.88;;
8825;SDS011;4449;50.872;4.714;2022-12-01T15:11:59;24.65;;;15.52;;
8825;SDS011;4449;50.872;4.714;2022-12-01T15:14:28;27.52;;;15.27;;
8825;SDS011;4449;50.872;4.714;2022-12-01T15:16:57;25.38;;;15.27;;
8825;SDS011;4449;50.872;4.714;2022-12-01T15:19:32;28.53;;;15.83;;
8825;SDS011;4449;50.872;4.714;2022-12-01T15:22:06;27.15;;;15.73;;
8825;SDS011;4449;50.872;4.714;2022-12-01T15:24:36;28.15;;;15.65;;
8825;SDS011;4449;50.872;4.714;2022-12-01T15:27:19;26.20;;;14.90;;
8825;SDS011;4449;50.872;4.714;2022-12-01T15:29:47;26.92;;;15.68;;
8825;SDS011;4449;50.872;4.714;2022-12-01T15:32:15;28.27;;;16.33;;
8825;SDS011;4449;50.872;4.714;2022-12-01T15:34:44;27.73;;;15.88;;
8825;SDS011;4449;50.872;4.714;2022-12-01T15:37:15;27.42;;;15.80;;
8825;SDS011;4449;50.872;4.714;2022-12-01T15:39:44;25.88;;;15.10;;
8825;SDS011;4449;50.872;4.714;2022-12-01T15:42:17;28.98;;;15.85;;
8825;SDS011;4449;50.872;4.714;2022-12-01T15:44:55;26.83;;;15.48;;
8825;SDS011;4449;50.872;4.714;2022-12-01T15:47:31;26.95;;;15.65;;
8825;SDS011;4449;50.872;4.714;2022-12-01T15:50:00;24.60;;;15.07;;
8825;SDS011;4449;50.872;4.714;2022-12-01T15:52:29;29.13;;;15.95;;
8825;SDS011;4449;50.872;4.714;2022-12-01T15:54:58;26.58;;;15.65;;
8825;SDS011;4449;50.872;4.714;2022-12-01T15:57:28;27.77;;;16.70;;
8825;SDS011;4449;50.872;4.714;2022-12-01T15:59:56;30.17;;;17.17;;
8825;SDS011;4449;50.872;4.714;2022-12-01T16:02:25;28.52;;;16.92;;
8825;SDS011;4449;50.872;4.714;2022-12-01T16:05:04;26.52;;;15.63;;
8825;SDS011;4449;50.872;4.714;2022-12-01T16:07:35;30.90;;;15.57;;
8825;SDS011;4449;50.872;4.714;2022-12-01T16:10:04;28.63;;;16.13;;